Metar z połowy godziny Komunikat METAR ze strony awiacja.imgw.pl Metar G30 EPBY METAR EPBY 200330Z 26012KT 9999 FEW012 SCT031 BKN036 05/02 Q1013 =